КЛИМАТИЧНИ ДАННИ

ДНЕС
Time Temp. Dewp. Hum. Посока н Скорост на Пориви на Bar.
00:05 15.6 10.2 70 0 0 1012.1
00:14 15.6 10.2 70 0 0 1012.1
00:24 15.5 10.1 70 0 0 1012.2
00:35 15.5 10.1 70 0 0 1012.1
00:45 15.4 10 70 0 0 1012.2
00:54 15.3 9.9 70 0 0 1012.1
01:05 15.3 10.1 71 0 0 1012.1
01:15 15.4 10.2 71 0 0 1012.1
01:25 15.4 10.2 71 0 0 1012.1
01:34 15.4 10.2 71 0 0 1012
01:45 15.4 10.2 71 0 0 1012.1
01:55 15.4 10.2 71 0 0 1012.1
02:05 15.4 10.2 71 0 0 1012.2
02:15 15.5 10.3 71 0 0 1012.1
02:25 15.5 10.3 71 0 0 1012.1
02:35 15.6 10.4 71 0 0 1012.1
02:45 15.6 10.4 71 0 0 1012.1
02:56 15.6 10.2 70 0 0 1012
03:05 15.5 10.1 70 0 0 1012.1
03:15 15.4 10 70 0 0 1011.9
03:26 15.4 10 70 0 0 1011.9
03:36 15.2 9.8 70 0 0 1011.9
03:45 15.2 9.8 70 0 0 1011.9
03:55 15.1 9.9 71 0 0 1011.8
04:06 15.1 9.9 71 0 0 1011.8
04:16 15.1 9.9 71 0 0 1011.8
04:25 15.1 9.9 71 0 0 1011.7
04:36 15.1 9.9 71 0 0 1011.7
04:46 15.1 9.9 71 0 0 1011.7
04:56 15.1 9.9 71 0 0 1011.7
05:06 15.1 9.9 71 0 0 1011.7
05:16 15.2 10 71 0 0 1011.7
05:26 15.2 10 71 0 0 1011.7
05:36 15.3 10.1 71 0 0 1011.7
05:47 15.4 10.2 71 0 0 1011.6
05:56 15.3 10.1 71 0 0 1011.7
06:06 15.3 10.1 71 0 0 1011.7
06:16 15.3 10.1 71 0 0 1011.7
06:27 15.3 10.1 71 0 0 1011.8
06:36 15.3 10.1 71 0 0 1011.8
06:46 15.4 10.2 71 0 0 1011.7
06:57 15.4 10.2 71 0 0 1011.9
07:07 15.5 10.3 71 0 0 1011.8
07:16 15.5 10.5 72 0 0 1011.9
07:27 15.6 10.6 72 0 0 1012
07:37 15.7 10.7 72 0 0 1012.1
07:47 15.8 10.8 72 0 0 1011.9
07:56 15.9 10.9 72 0 0 1012.1
08:07 16 11 72 0 0 1012
08:17 16.1 10.8 71 0 0 1012
08:27 16.3 11 71 0 0 1012.1
08:37 16.5 11.2 71 0 0 1012.1
08:47 16.7 11.4 71 0 0 1012.1
08:57 16.7 11.4 71 0 0 1012.2
09:07 16.9 11.6 71 0 0 1012.1
09:18 17.1 11.8 71 0 0 1012.1
09:27 17.4 12.1 71 0 0 1012.1
09:37 17.5 12 70 0 0 1012.2
09:48 17.7 12.2 70 0 0 1012.1
09:58 17.7 12.2 70 0 0 1012.2
10:07 18 12.5 70 0 0 1012.1
10:17 18.2 12.6 70 0 0 1012.1
10:28 18.5 12.7 69 0 0 1012.1
10:38 18.7 12.9 69 0 0 1012.2
10:47 19 13 68 0 0 1012.2
10:58 19.2 12.9 67 0 0 1012.3
11:08 19.3 13 67 0 0 1012.2
11:18 19.5 13 66 0 0 1012.2
11:27 19.5 13 66 0 0 1012.3
11:38 19.2 12.7 66 0 0 1012.3
11:48 19.1 12.6 66 0 0 1012.3
11:58 19.1 12.6 66 0 0 1012.1
12:08 19.1 12.8 67 0 0 1012
12:18 19.2 12.7 66 0 0 1012
12:28 19.4 12.9 66 0 0 1012.1
12:38 19.8 13.3 66 0 0 1011.9
12:49 20.1 13.6 66 0 0 1011.8
12:58 20.5 13.7 65 0 0 1011.7
13:08 20.8 13.7 64 0 0 1011.9
13:19 20.4 13.4 64 0 0 1012.4
13:29 19.1 12.4 65 0 0 1012.5
13:38 18.2 11.8 66 0 0 1012.6
13:48 17.2 11 67 0 0 1012.7
13:59 16.6 10.7 68 0 0 1012.6
14:09 16.6 11.1 70 0 0 1012.7
14:18 16.7 11.2 70 0 0 1012.7
14:29 16.8 11.5 71 0 0 1012.5
14:39 17 11.7 71 0 0 1012.4
14:49 17.2 11.9 71 0 0 1012.5
14:59 17.1 11.8 71 0 0 1012.7
15:09 16.9 11.6 71 0 0 1012.6
15:19 16.9 11.6 71 0 0 1012.5
15:29 17.1 11.8 71 0 0 1012.5
15:39 17.3 12 71 0 0 1012.3
15:49 17.2 11.9 71 0 0 1012.2
15:59 17 11.7 71 0 0 1012.2
16:09 17 11.7 71 0 0 1012.2
16:20 17.1 12 72 0 0 1012.2
16:29 17.2 12.1 72 0 0 1012.1
16:39 17.1 12 72 0 0 1012.2
16:50 17.2 12.1 72 0 0 1012.1
17:00 17.4 12.3 72 0 0 1012.1
17:09 17.5 12.4 72 0 0 1012.2
17:20 17.5 12.4 72 0 0 1012.1
17:30 17.4 12.1 71 0 0 1012.2
17:40 17.3 12 71 0 0 1012.1
17:49 17.2 11.9 71 0 0 1012.2
18:00 16.9 11.6 71 0 0 1012.2
18:10 16.9 11.8 72 0 0 1012.2
18:20 16.7 11.6 72 0 0 1012.3
18:30 16.4 11.3 72 0 0 1012.2
18:40 16.1 11.1 72 0 0 1012.2
18:50 15.9 10.9 72 0 0 1012.3
19:00 15.6 10.6 72 0 0 1012.4
19:10 15.4 10.4 72 0 0 1012.3
19:20 15.1 10.3 73 0 0 1012.4
19:30 14.9 10.1 73 0 0 1012.5
19:41 14.7 9.9 73 0 0 1012.5

ДНЕВНИ СТАТИСТИКИ

2021-09-18
ТЕМПЕРАТУРА
СРЕДНО
16.7
ВИСОКО
20.8
13:08
МИНИМУМ
14.7
19:41
АТМОСФЕРНО НАЛЯГАНЕ
СРЕДНО
1012.1
ВИСОКО
1012.7
13:48
МИНИМУМ
1011.6
05:47
ТОЧКА НА ОРОСЯВАНЕ
СРЕДНО
11.2
ВИСОКО
13.7
12:58
МИНИМУМ
9.8
03:36
ОТНОСИТЕЛНА ВЛАЖНОСТ
СРЕДНО
70
ВИСОКО
73
19:20
МИНИМУМ
64
13:08
СКОРОСТ НА ВЯТЪРА
СРЕДНО
0.0
ВИСОКО
0.0
17:51
ПОРИВИ НА ВЯТЪРА
СРЕДНО
0.0
ВИСОКО
0.0
17:51
ПОСОКА НА ВЯТЪРА
PREVAILING
%
ТЕМПЕРАТУРА (°C)
МИНИМУМ
14.7
ВИСОКО
20.8
СРЕДНО
16.7
АТМОСФЕРНО НАЛЯГАНЕ (hpa)
МИНИМУМ
1011.6
ВИСОКО
1012.7
СРЕДНО
1012.1
DEVICE